Data for 09/05/2008

Time Sea-Level Adjusted Pressure Absolute Pressure Temperature Relative Humidity Dew Point   
(mb) (inHg) (mb) (inHg) (C) (F) (%) (C) (F)
00:05 1022 30.18 852 25.16 7 44.7 80 3.9 38.9
00:10 1022 30.18 852 25.16 7.1 44.8 80 3.8 38.9
00:15 1022 30.18 851 25.13 7.1 44.7 80 3.8 38.9
00:20 1022 30.18 851 25.13 6.9 44.5 81 3.9 39.1
00:25 1022 30.18 852 25.16 6.7 44 82 3.8 38.9
00:30 1022 30.18 851 25.13 6.4 43.5 84 3.8 38.9
00:35 1022 30.18 852 25.16 6.3 43.4 83 3.6 38.5
00:40 1022 30.18 852 25.16 6.5 43.6 82 3.6 38.4
00:45 1022 30.18 852 25.16 6.4 43.5 82 3.6 38.5
00:50 1022 30.18 852 25.16 6.4 43.5 81 3.4 38.2
00:55 1022 30.18 852 25.16 6.3 43.3 83 3.5 38.3
01:00 1022 30.18 852 25.16 6 42.8 82 3.2 37.7
01:05 1022 30.18 852 25.16 5.8 42.4 85 3.5 38.2
01:10 1022 30.18 852 25.16 5.2 41.4 86 3.1 37.5
01:15 1022 30.18 852 25.16 4.9 40.8 86 2.7 36.9
01:20 1022 30.18 851 25.13 5.1 41.1 83 2.5 36.4
01:25 1022 30.18 852 25.16 5.2 41.4 82 2.4 36.4
01:30 1022 30.18 852 25.16 5.2 41.4 83 2.6 36.6
01:35 1022 30.18 852 25.16 5 41 84 2.5 36.5
01:40 1022 30.18 852 25.16 4.9 40.9 85 2.6 36.7
01:45 1022 30.18 852 25.16 5.3 41.6 83 2.7 36.9
01:50 1022 30.18 852 25.16 5.5 41.9 83 2.8 37.1
01:55 1022 30.18 852 25.16 5.5 41.8 81 2.5 36.5
02:00 1022 30.18 852 25.16 5.2 41.4 83 2.6 36.7
02:05 1022 30.18 852 25.16 5.2 41.3 84 2.6 36.7
02:10 1022 30.18 851 25.13 4.9 40.8 85 2.5 36.5
02:15 1022 30.18 851 25.13 4.7 40.4 86 2.5 36.4
02:20 1022 30.18 851 25.13 4.6 40.2 85 2.3 36.2
02:25 1022 30.18 851 25.13 4.7 40.4 85 2.3 36.2
02:30 1022 30.18 851 25.13 4.8 40.6 85 2.5 36.6
02:35 1022 30.18 851 25.13 4.9 40.7 86 2.7 36.9
02:40 1022 30.18 851 25.13 5 41 85 2.7 36.8
02:45 1022 30.18 851 25.13 5.2 41.3 84 2.7 36.9
02:50 1022 30.18 851 25.13 5.2 41.3 83 2.6 36.7
02:55 1022 30.18 851 25.13 5.2 41.4 80 2 35.6
03:00 1022 30.18 851 25.13 5.2 41.4 81 2.2 35.9
03:05 1022 30.18 851 25.13 5 41 82 2.2 36
03:10 1022 30.18 851 25.13 4.9 40.8 82 2.1 35.7
03:15 1022 30.18 851 25.13 4.7 40.4 81 1.8 35.2
03:20 1022 30.18 851 25.13 4.7 40.5 82 2 35.5
03:25 1022 30.18 851 25.13 4.4 39.9 85 2 35.7
03:30 1022 30.18 851 25.13 4.2 39.6 85 1.9 35.4
03:35 1022 30.18 851 25.13 4 39.3 86 1.9 35.4
03:40 1022 30.18 851 25.13 3.8 38.8 86 1.7 35
03:45 1022 30.18 851 25.13 3.8 38.8 86 1.6 34.8
03:50 1022 30.18 851 25.13 3.6 38.4 86 1.4 34.5
03:55 1022 30.18 851 25.13 3.6 38.5 85 1.2 34.2
04:00 1022 30.18 851 25.13 3.9 39 83 1.3 34.3
04:05 1022 30.18 851 25.13 3.9 39 84 1.4 34.5
04:10 1022 30.18 851 25.13 3.6 38.6 85 1.3 34.3
04:15 1022 30.18 851 25.13 3.6 38.4 85 1.3 34.3
04:20 1022 30.18 851 25.13 3.4 38.1 86 1.2 34.2
04:25 1022 30.18 851 25.13 3.1 37.5 87 1.1 33.9
04:30 1022 30.18 851 25.13 3 37.5 86 1 33.8
04:35 1022 30.18 851 25.13 3 37.3 87 1 33.7
04:40 1022 30.18 851 25.13 2.9 37.3 87 0.9 33.7
04:45 1022 30.18 851 25.13 2.9 37.2 87 0.9 33.7
04:50 1022 30.18 851 25.13 2.9 37.1 87 0.9 33.5
04:55 1022 30.18 851 25.13 2.8 37 87 0.9 33.6
05:00 1022 30.18 851 25.13 2.7 36.9 87 0.8 33.5
05:05 1022 30.18 851 25.13 2.9 37.1 86 0.8 33.4
05:10 1022 30.18 851 25.13 3 37.4 86 0.9 33.6
05:15 1022 30.18 851 25.13 3.1 37.6 86 0.9 33.7
05:20 1022 30.18 851 25.13 3.1 37.5 86 0.9 33.6
05:25 1022 30.18 851 25.13 3.1 37.7 85 0.8 33.5
05:30 1022 30.18 851 25.13 3.2 37.8 84 0.8 33.5
05:35 1022 30.18 851 25.13 3.2 37.8 84 0.8 33.5
05:40 1022 30.18 851 25.13 3.3 37.9 84 0.8 33.5
05:45 1022 30.18 851 25.13 3.4 38 83 0.8 33.5
05:50 1022 30.18 851 25.13 3.3 37.9 84 0.9 33.6
05:55 1022 30.18 851 25.13 3.3 37.9 84 0.8 33.4
06:00 1022 30.18 851 25.13 3.2 37.8 83 0.7 33.2
06:05 1022 30.18 851 25.13 3.2 37.8 84 0.7 33.3
06:10 1022 30.18 851 25.13 3.2 37.7 83 0.6 33.1
06:15 1022 30.18 851 25.13 3.3 37.9 82 0.6 33
06:20 1022 30.18 851 25.13 3.4 38.1 82 0.7 33.2
06:25 1022 30.18 851 25.13 3.3 38 83 0.8 33.4
06:30 1022 30.18 851 25.13 3.3 38 82 0.5 32.9
06:35 1022 30.18 851 25.13 3.4 38.2 81 0.5 32.9
06:40 1022 30.18 851 25.13 3.4 38.2 81 0.6 33
06:45 1022 30.18 851 25.13 3.4 38.2 81 0.5 32.9
06:50 1022 30.18 851 25.13 3.4 38 82 0.5 32.9
06:55 1022 30.18 851 25.13 3.3 37.9 84 0.8 33.4
07:00 1022 30.18 851 25.13 3.1 37.6 85 0.8 33.4
07:05 1022 30.18 851 25.13 2.9 37.3 86 0.7 33.3
07:10 1022 30.18 851 25.13 2.9 37.2 85 0.6 33.1
07:15 1022 30.18 851 25.13 3 37.4 86 0.8 33.4
07:20 1022 30.18 851 25.13 2.9 37.3 86 0.7 33.3
07:25 1022 30.18 851 25.13 3 37.4 86 0.8 33.5
07:30 1022 30.18 851 25.13 2.9 37.3 86 0.8 33.4
07:35 1022 30.18 851 25.13 3 37.3 85 0.7 33.2
07:40 1022 30.18 851 25.13 3.2 37.8 83 0.6 33.1
07:45 1022 30.18 851 25.13 3.4 38.1 84 0.9 33.5
07:50 1022 30.18 851 25.13 3.4 38.2 83 0.9 33.5
07:55 1022 30.18 851 25.13 3.8 38.8 82 0.9 33.7
08:00 1022 30.18 851 25.13 4.3 39.7 80 1.1 34
08:05 1022 30.18 851 25.13 4.6 40.2 79 1.3 34.3
08:10 1022 30.18 851 25.13 4.9 40.9 79 1.5 34.8
08:15 1022 30.18 851 25.13 5.2 41.3 77 1.4 34.5
08:20 1022 30.18 851 25.13 5.4 41.8 76 1.6 34.9
08:25 1022 30.18 851 25.13 5.5 41.9 77 1.8 35.2
08:30 1022 30.18 851 25.13 5.7 42.2 75 1.7 35.1
08:35 1022 30.18 851 25.13 5.7 42.3 75 1.7 35.1
08:40 1022 30.18 851 25.13 5.7 42.3 76 1.8 35.2
08:45 1022 30.18 851 25.13 5.8 42.4 76 1.9 35.5
08:50 1022 30.18 851 25.13 6.1 42.9 76 2.2 36
08:55 1022 30.18 851 25.13 6.2 43.2 75 2.2 36
09:00 1022 30.18 851 25.13 6.9 44.3 75 2.8 37.1
09:05 1022 30.18 851 25.13 6.9 44.4 74 2.5 36.5
09:10 1022 30.18 851 25.13 7 44.6 74 2.7 36.9
09:15 1022 30.18 851 25.13 7.4 45.2 71 2.5 36.6
09:20 1022 30.18 851 25.13 7.8 46 71 2.8 37.1
09:25 1022 30.18 851 25.13 8.3 46.9 68 2.7 36.9
09:30 1022 30.18 851 25.13 9.1 48.4 66 3.2 37.8
09:35 1022 30.18 851 25.13 9.1 48.4 66 3.1 37.6
09:40 1022 30.18 851 25.13 9.6 49.3 64 3.2 37.8
09:45 1022 30.18 851 25.13 9.8 49.6 63 3.1 37.6
09:50 1022 30.18 851 25.13 10.1 50.1 60 2.8 37.1
09:55 1022 30.18 851 25.13 10.2 50.4 59 2.7 36.8
10:00 1022 30.18 851 25.13 10.1 50.2 58 2.3 36.2
10:05 1022 30.18 851 25.13 10.7 51.2 58 2.7 36.8
10:10 1022 30.18 851 25.13 11 51.8 56 2.5 36.5
10:15 1022 30.18 851 25.13 11 51.7 57 2.9 37.3
10:20 1022 30.18 851 25.13 10.8 51.5 56 2.5 36.5
10:25 1022 30.18 851 25.13 11.8 53.2 53 2.6 36.6
10:30 1022 30.18 851 25.13 12.1 53.8 54 3.2 37.7
10:35 1022 30.18 851 25.13 12.3 54.1 53 2.9 37.3
10:40 1022 30.18 851 25.13 12.1 53.8 52 2.7 36.9
10:45 1022 30.18 851 25.13 12 53.6 54 3 37.4
10:50 1022 30.18 851 25.13 12.2 54 54 3.2 37.7
10:55 1022 30.18 851 25.13 13 55.3 51 3.1 37.5
11:00 1022 30.18 851 25.13 13.2 55.7 52 3.7 38.6
11:05 1022 30.18 851 25.13 12 53.5 52 2.4 36.3
11:10 1021 30.15 851 25.13 12.4 54.3 50 2.2 35.9
11:15 1021 30.15 851 25.13 13.3 56 50 3.1 37.6
11:20 1021 30.15 851 25.13 12.8 55 50 2.6 36.8
11:25 1021 30.15 851 25.13 13.6 56.5 47 2.6 36.7
11:30 1021 30.15 851 25.13 14 57.2 46 2.8 37
11:35 1021 30.15 851 25.13 13.9 56.9 46 2.4 36.3
11:40 1021 30.15 851 25.13 14 57.2 45 2.3 36.1
11:45 1021 30.15 851 25.13 13.9 57.1 46 2.6 36.6
11:50 1021 30.15 851 25.13 13.7 56.7 47 2.6 36.6
11:55 1021 30.15 851 25.13 13.6 56.5 46 2.3 36.1
12:00 1021 30.15 851 25.13 14.2 57.5 46 2.9 37.2
12:05 1021 30.15 851 25.13 14.4 57.8 45 2.8 37
12:10 1021 30.15 850 25.1 14.5 58 45 2.7 36.9
12:15 1021 30.15 850 25.1 14.6 58.3 45 3 37.4
12:20 1021 30.15 850 25.1 14.5 58.1 43 2.1 35.7
12:25 1021 30.15 850 25.1 14.2 57.5 43 1.9 35.3
12:30 1021 30.15 850 25.1 14.2 57.6 44 2.3 36.2
12:35 1021 30.15 850 25.1 14 57.2 45 2.4 36.4
12:40 1021 30.15 850 25.1 14 57.2 45 2.4 36.4
12:45 1021 30.15 850 25.1 14.4 58 41 1.5 34.6
12:50 1021 30.15 850 25.1 14.7 58.5 41 1.6 35
12:55 1021 30.15 850 25.1 14.6 58.2 41 1.4 34.6
13:00 1021 30.15 850 25.1 14.7 58.4 42 2 35.5
13:05 1021 30.15 850 25.1 14.4 57.9 44 2.4 36.2
13:10 1021 30.15 850 25.1 14.8 58.6 41 1.8 35.2
13:15 1021 30.15 850 25.1 15.1 59.1 40 1.7 35.1
13:20 1021 30.15 850 25.1 14.5 58.1 42 2 35.5
13:25 1021 30.15 850 25.1 14.8 58.6 38 0.6 33.1
13:30 1021 30.15 850 25.1 15.5 59.9 37 0.8 33.4
13:35 1021 30.15 850 25.1 15.6 60.1 35 0.5 32.8
13:40 1021 30.15 850 25.1 15.8 60.4 35 0.3 32.6
13:45 1021 30.15 850 25.1 16.1 61 34 0.4 32.7
13:50 1021 30.15 850 25.1 15.9 60.5 36 0.8 33.5
13:55 1021 30.15 850 25.1 15.6 60.1 35 0.4 32.7
14:00 1021 30.15 850 25.1 15.9 60.7 36 0.8 33.4
14:05 1021 30.15 850 25.1 15.8 60.5 36 0.7 33.3
14:10 1021 30.15 850 25.1 15 58.9 39 1.1 34
14:15 1021 30.15 850 25.1 15.4 59.7 36 0.3 32.6
14:20 1020 30.12 850 25.1 15.7 60.3 35 0.5 32.9
14:25 1020 30.12 850 25.1 15.9 60.6 35 0.5 33
14:30 1020 30.12 850 25.1 15.6 60.1 36 0.6 33.2
14:35 1020 30.12 850 25.1 14.7 58.4 39 0.8 33.4
14:40 1020 30.12 850 25.1 14.7 58.4 38 0.4 32.7
14:45 1020 30.12 850 25.1 15 59 38 1 33.8
14:50 1020 30.12 850 25.1 15.2 59.3 38 1 33.9
14:55 1020 30.12 850 25.1 14.9 58.8 39 1.1 34.1
15:00 1020 30.12 850 25.1 14.7 58.5 44 2.7 36.8
15:05 1020 30.12 850 25.1 12.9 55.2 51 3.2 37.8
15:10 1020 30.12 850 25.1 12.4 54.4 51 2.7 36.9
15:15 1020 30.12 850 25.1 11.9 53.5 51 2.3 36.1
15:20 1020 30.12 850 25.1 12.1 53.7 50 2 35.6
15:25 1020 30.12 850 25.1 11.8 53.2 53 2.6 36.6
15:30 1021 30.15 850 25.1 11.7 53 53 2.4 36.3
15:35 1021 30.15 850 25.1 11.8 53.3 58 3.8 38.9
15:40 1021 30.15 850 25.1 11.3 52.3 67 5.5 41.8
15:45 1021 30.15 850 25.1 10.2 50.3 75 6 42.8
15:50 1021 30.15 850 25.1 9.8 49.6 76 5.7 42.3
15:55 1021 30.15 850 25.1 10 50 75 5.8 42.4
16:00 1021 30.15 850 25.1 10.1 50.1 73 5.4 41.7
16:05 1021 30.15 850 25.1 9.8 49.6 71 4.7 40.5
16:10 1021 30.15 850 25.1 10 49.9 71 5 41
16:15 1021 30.15 850 25.1 10.6 51.1 67 4.8 40.6
16:20 1021 30.15 850 25.1 11.1 51.9 68 5.5 41.9
16:25 1020 30.12 850 25.1 10.7 51.3 72 5.9 42.6
16:30 1020 30.12 850 25.1 10.7 51.2 72 5.8 42.5
16:35 1020 30.12 850 25.1 10.9 51.7 68 5.2 41.4
16:40 1020 30.12 850 25.1 11.1 52 61 4 39.2
16:45 1020 30.12 850 25.1 10.9 51.6 65 4.7 40.4
16:50 1020 30.12 849 25.07 11.3 52.4 63 4.5 40.1
16:55 1020 30.12 849 25.07 11.4 52.4 60 4 39.2
17:00 1020 30.12 849 25.07 11.1 51.9 61 3.9 39
17:05 1020 30.12 849 25.07 11.1 52 60 3.8 38.8
17:10 1020 30.12 849 25.07 10.9 51.6 63 4.1 39.4
17:15 1020 30.12 849 25.07 11.3 52.3 63 4.5 40
17:20 1020 30.12 849 25.07 11.4 52.4 62 4.4 39.9
17:25 1020 30.12 849 25.07 11.3 52.3 62 4.4 39.9
17:30 1020 30.12 849 25.07 11.6 52.8 59 4 39.2
17:35 1020 30.12 849 25.07 11.5 52.6 62 4.4 40
17:40 1020 30.12 849 25.07 11.7 53.1 62 4.8 40.6
17:45 1020 30.12 849 25.07 12 53.6 62 5 41.1
17:50 1020 30.12 849 25.07 11.9 53.5 61 4.7 40.5
17:55 1020 30.12 849 25.07 11.7 53 61 4.5 40.1
18:00 1020 30.12 849 25.07 11.7 53 62 4.7 40.4
18:05 1020 30.12 849 25.07 11.6 52.8 63 4.8 40.6
18:10 1020 30.12 849 25.07 11.7 53 64 5.2 41.4
18:15 1020 30.12 849 25.07 11.7 53 63 4.9 40.8
18:20 1020 30.12 849 25.07 11.6 52.9 61 4.4 39.9
18:25 1020 30.12 849 25.07 11.6 52.9 60 4.1 39.3
18:30 1020 30.12 849 25.07 11.7 53.1 60 4.4 39.8
18:35 1020 30.12 849 25.07 11.9 53.4 60 4.3 39.8
18:40 1020 30.12 849 25.07 12.2 53.9 59 4.5 40.2
18:45 1020 30.12 849 25.07 12.4 54.2 57 4.1 39.3
18:50 1020 30.12 849 25.07 12.5 54.4 58 4.5 40.1
18:55 1020 30.12 850 25.1 12.4 54.4 58 4.4 39.9
19:00 1020 30.12 850 25.1 12.4 54.3 59 4.7 40.5
19:05 1020 30.12 850 25.1 12.4 54.2 59 4.7 40.4
19:10 1020 30.12 849 25.07 12.5 54.4 59 4.7 40.4
19:15 1020 30.12 850 25.1 12.4 54.4 59 4.6 40.3
19:20 1020 30.12 849 25.07 12.3 54.2 60 4.9 40.7
19:25 1020 30.12 850 25.1 12.2 54 59 4.5 40.1
19:30 1020 30.12 850 25.1 12.2 54 58 4.3 39.8
19:35 1020 30.12 850 25.1 12.2 53.9 58 4.3 39.7
19:40 1020 30.12 849 25.07 12.2 54 58 4.4 39.9
19:45 1020 30.12 849 25.07 12.2 54 62 5.3 41.5
19:50 1020 30.12 849 25.07 11.8 53.3 63 5.1 41.2
19:55 1020 30.12 849 25.07 11.8 53.3 62 4.8 40.6
20:00 1020 30.12 850 25.1 11.9 53.3 62 4.9 40.8
20:05 1020 30.12 850 25.1 11.9 53.3 61 4.6 40.2
20:10 1020 30.12 850 25.1 11.9 53.4 60 4.5 40.1
20:15 1020 30.12 850 25.1 12 53.7 62 5.1 41.2
20:20 1020 30.12 850 25.1 11.9 53.4 64 5.3 41.5
20:25 1020 30.12 850 25.1 11.7 53.1 63 5.1 41.1
20:30 1020 30.12 850 25.1 11.7 53.1 63 4.9 40.8
20:35 1021 30.15 850 25.1 11.8 53.2 64 5.1 41.3
20:40 1021 30.15 850 25.1 11.8 53.2 63 5 41
20:45 1021 30.15 850 25.1 11.7 53 65 5.4 41.7
20:50 1021 30.15 850 25.1 11.6 53 64 5 41
20:55 1021 30.15 850 25.1 11.6 52.9 65 5.3 41.5
21:00 1021 30.15 850 25.1 11.5 52.6 65 5.3 41.5
21:05 1021 30.15 850 25.1 11.2 52.2 63 4.4 40
21:10 1021 30.15 850 25.1 11 51.7 64 4.5 40.1
21:15 1021 30.15 850 25.1 10.8 51.5 66 4.7 40.5
21:20 1021 30.15 850 25.1 10.6 51.2 67 4.9 40.8
21:25 1021 30.15 850 25.1 10.5 50.9 69 5.1 41.3
21:30 1021 30.15 850 25.1 10.4 50.6 73 5.7 42.2
21:35 1021 30.15 850 25.1 10.2 50.4 73 5.6 42.2
21:40 1021 30.15 850 25.1 10.2 50.3 74 5.8 42.4
21:45 1021 30.15 850 25.1 10 50 75 5.7 42.3
21:50 1021 30.15 850 25.1 9.9 49.9 77 6.1 42.9
21:55 1021 30.15 850 25.1 9.9 49.8 76 5.9 42.6
22:00 1021 30.15 850 25.1 9.7 49.4 80 6.3 43.3
22:05 1021 30.15 850 25.1 9.2 48.5 82 6.2 43.1
22:10 1021 30.15 850 25.1 8.9 48 82 6 42.9
22:15 1021 30.15 850 25.1 8.8 47.8 82 6 42.7
22:20 1021 30.15 850 25.1 8.7 47.7 83 5.9 42.6
22:25 1021 30.15 850 25.1 8.8 47.8 81 5.7 42.3
22:30 1021 30.15 850 25.1 8.8 47.8 82 6 42.7
22:35 1021 30.15 850 25.1 8.8 47.8 82 5.8 42.5
22:40 1021 30.15 850 25.1 8.9 48 82 6.1 42.9
22:45 1021 30.15 850 25.1 9 48.1 82 6 42.8
22:50 1021 30.15 850 25.1 8.9 48.1 83 6.2 43.2
22:55 1021 30.15 850 25.1 9 48.2 83 6.3 43.3
23:00 1021 30.15 850 25.1 8.6 47.6 86 6.4 43.5
23:05 1021 30.15 850 25.1 8.5 47.3 86 6.3 43.4
23:10 1021 30.15 850 25.1 8.6 47.4 84 6.1 42.9
23:15 1021 30.15 850 25.1 8.7 47.6 85 6.3 43.3
23:20 1021 30.15 850 25.1 8.5 47.3 85 6.1 42.9
23:25 1021 30.15 850 25.1 8.6 47.4 83 5.8 42.4
23:30 1021 30.15 850 25.1 8.8 47.9 82 5.9 42.6
23:35 1021 30.15 850 25.1 9.2 48.5 80 5.9 42.7
23:40 1021 30.15 850 25.1 9.2 48.6 81 6.2 43.2
23:45 1020 30.12 850 25.1 9.2 48.5 80 6 42.8
23:50 1020 30.12 850 25.1 9 48.3 82 6.2 43.1
23:55 1020 30.12 850 25.1 9 48.2 80 5.7 42.3
24:00 1020 30.12 850 25.1 8.9 48 82 6 42.9